sensor_id;sensor_type;location;lat;lon;timestamp;P1;durP1;ratioP1;P2;durP2;ratioP2
50161;SDS011;36061;48.116;11.612;2022-12-08T00:01:07;11.43;;;6.23;;
50161;SDS011;36061;48.116;11.612;2022-12-08T00:03:33;11.33;;;6.63;;
50161;SDS011;36061;48.116;11.612;2022-12-08T00:06:00;12.53;;;7.23;;
50161;SDS011;36061;48.116;11.612;2022-12-08T00:08:46;17.83;;;8.13;;
50161;SDS011;36061;48.116;11.612;2022-12-08T00:11:30;15.30;;;8.10;;
50161;SDS011;36061;48.116;11.612;2022-12-08T00:13:56;10.73;;;6.23;;
50161;SDS011;36061;48.116;11.612;2022-12-08T00:16:22;10.33;;;6.63;;
50161;SDS011;36061;48.116;11.612;2022-12-08T00:18:48;11.97;;;6.60;;
50161;SDS011;36061;48.116;11.612;2022-12-08T00:21:14;12.80;;;7.50;;
50161;SDS011;36061;48.116;11.612;2022-12-08T00:23:40;11.53;;;6.97;;
50161;SDS011;36061;48.116;11.612;2022-12-08T00:26:05;11.63;;;6.13;;
50161;SDS011;36061;48.116;11.612;2022-12-08T00:28:32;9.30;;;5.67;;
50161;SDS011;36061;48.116;11.612;2022-12-08T00:30:58;11.03;;;6.17;;
50161;SDS011;36061;48.116;11.612;2022-12-08T00:33:26;10.27;;;5.87;;
50161;SDS011;36061;48.116;11.612;2022-12-08T00:35:52;13.90;;;6.30;;
50161;SDS011;36061;48.116;11.612;2022-12-08T00:38:18;11.97;;;6.90;;
50161;SDS011;36061;48.116;11.612;2022-12-08T00:40:44;10.10;;;6.50;;
50161;SDS011;36061;48.116;11.612;2022-12-08T00:43:11;9.27;;;5.87;;
50161;SDS011;36061;48.116;11.612;2022-12-08T00:45:37;13.43;;;6.77;;
50161;SDS011;36061;48.116;11.612;2022-12-08T00:48:03;11.33;;;6.40;;
50161;SDS011;36061;48.116;11.612;2022-12-08T00:50:29;14.00;;;7.07;;
50161;SDS011;36061;48.116;11.612;2022-12-08T00:52:55;14.13;;;6.77;;
50161;SDS011;36061;48.116;11.612;2022-12-08T00:55:20;10.47;;;6.13;;
50161;SDS011;36061;48.116;11.612;2022-12-08T00:57:46;10.97;;;6.23;;
50161;SDS011;36061;48.116;11.612;2022-12-08T01:00:12;11.03;;;6.67;;
50161;SDS011;36061;48.116;11.612;2022-12-08T01:02:39;11.27;;;6.60;;
50161;SDS011;36061;48.116;11.612;2022-12-08T01:05:05;10.10;;;6.33;;
50161;SDS011;36061;48.116;11.612;2022-12-08T01:07:32;10.93;;;6.30;;
50161;SDS011;36061;48.116;11.612;2022-12-08T01:09:57;16.30;;;6.73;;
50161;SDS011;36061;48.116;11.612;2022-12-08T01:12:24;10.70;;;6.97;;
50161;SDS011;36061;48.116;11.612;2022-12-08T01:14:50;13.53;;;7.23;;
50161;SDS011;36061;48.116;11.612;2022-12-08T01:17:16;11.97;;;6.90;;
50161;SDS011;36061;48.116;11.612;2022-12-08T01:19:42;9.77;;;6.20;;
50161;SDS011;36061;48.116;11.612;2022-12-08T01:22:08;13.03;;;6.73;;
50161;SDS011;36061;48.116;11.612;2022-12-08T01:24:34;12.20;;;6.27;;
50161;SDS011;36061;48.116;11.612;2022-12-08T01:26:59;12.30;;;6.97;;
50161;SDS011;36061;48.116;11.612;2022-12-08T01:29:25;11.20;;;5.93;;
50161;SDS011;36061;48.116;11.612;2022-12-08T01:31:51;10.97;;;6.13;;
50161;SDS011;36061;48.116;11.612;2022-12-08T01:34:17;11.07;;;5.80;;
50161;SDS011;36061;48.116;11.612;2022-12-08T01:36:43;9.43;;;5.83;;
50161;SDS011;36061;48.116;11.612;2022-12-08T01:39:12;11.17;;;6.67;;
50161;SDS011;36061;48.116;11.612;2022-12-08T01:41:40;10.87;;;6.77;;
50161;SDS011;36061;48.116;11.612;2022-12-08T01:46:35;11.07;;;6.57;;
50161;SDS011;36061;48.116;11.612;2022-12-08T01:51:57;12.73;;;6.80;;
50161;SDS011;36061;48.116;11.612;2022-12-08T01:54:55;10.67;;;6.60;;
50161;SDS011;36061;48.116;11.612;2022-12-08T01:57:36;9.97;;;6.00;;
50161;SDS011;36061;48.116;11.612;2022-12-08T02:00:10;14.07;;;6.73;;
50161;SDS011;36061;48.116;11.612;2022-12-08T02:03:01;9.63;;;6.23;;
50161;SDS011;36061;48.116;11.612;2022-12-08T02:05:27;10.50;;;6.33;;
50161;SDS011;36061;48.116;11.612;2022-12-08T02:07:56;9.63;;;6.43;;
50161;SDS011;36061;48.116;11.612;2022-12-08T02:10:24;10.97;;;6.47;;
50161;SDS011;36061;48.116;11.612;2022-12-08T02:12:53;12.63;;;6.23;;
50161;SDS011;36061;48.116;11.612;2022-12-08T02:15:24;12.53;;;6.17;;
50161;SDS011;36061;48.116;11.612;2022-12-08T02:21:05;11.13;;;6.27;;
50161;SDS011;36061;48.116;11.612;2022-12-08T02:23:36;10.47;;;6.17;;
50161;SDS011;36061;48.116;11.612;2022-12-08T02:29:13;11.20;;;6.47;;
50161;SDS011;36061;48.116;11.612;2022-12-08T02:35:13;11.87;;;6.23;;
50161;SDS011;36061;48.116;11.612;2022-12-08T02:37:48;10.57;;;5.73;;
50161;SDS011;36061;48.116;11.612;2022-12-08T02:40:22;10.67;;;6.50;;
50161;SDS011;36061;48.116;11.612;2022-12-08T02:42:57;11.17;;;5.93;;
50161;SDS011;36061;48.116;11.612;2022-12-08T02:48:34;12.83;;;6.73;;
50161;SDS011;36061;48.116;11.612;2022-12-08T02:51:00;11.97;;;6.63;;
50161;SDS011;36061;48.116;11.612;2022-12-08T02:53:29;11.80;;;5.73;;
50161;SDS011;36061;48.116;11.612;2022-12-08T02:58:39;12.67;;;6.53;;
50161;SDS011;36061;48.116;11.612;2022-12-08T03:09:41;8.67;;;6.37;;
50161;SDS011;36061;48.116;11.612;2022-12-08T03:12:18;12.77;;;6.37;;
50161;SDS011;36061;48.116;11.612;2022-12-08T03:14:52;12.13;;;5.97;;
50161;SDS011;36061;48.116;11.612;2022-12-08T03:17:20;10.07;;;6.53;;
50161;SDS011;36061;48.116;11.612;2022-12-08T03:19:50;10.97;;;6.53;;
50161;SDS011;36061;48.116;11.612;2022-12-08T03:22:19;13.13;;;6.50;;
50161;SDS011;36061;48.116;11.612;2022-12-08T03:24:48;9.73;;;6.30;;
50161;SDS011;36061;48.116;11.612;2022-12-08T03:27:16;12.80;;;6.83;;
50161;SDS011;36061;48.116;11.612;2022-12-08T03:29:48;10.07;;;7.10;;
50161;SDS011;36061;48.116;11.612;2022-12-08T03:34:50;12.10;;;5.70;;
50161;SDS011;36061;48.116;11.612;2022-12-08T03:37:17;11.13;;;6.77;;
50161;SDS011;36061;48.116;11.612;2022-12-08T03:39:44;10.87;;;6.73;;
50161;SDS011;36061;48.116;11.612;2022-12-08T03:42:10;10.57;;;6.33;;
50161;SDS011;36061;48.116;11.612;2022-12-08T03:44:35;12.30;;;6.50;;
50161;SDS011;36061;48.116;11.612;2022-12-08T03:47:01;11.17;;;6.43;;
50161;SDS011;36061;48.116;11.612;2022-12-08T03:49:27;10.80;;;6.20;;
50161;SDS011;36061;48.116;11.612;2022-12-08T03:51:54;11.70;;;6.30;;
50161;SDS011;36061;48.116;11.612;2022-12-08T03:54:20;11.90;;;6.23;;
50161;SDS011;36061;48.116;11.612;2022-12-08T03:56:45;10.17;;;6.30;;
50161;SDS011;36061;48.116;11.612;2022-12-08T03:59:11;9.33;;;5.83;;
50161;SDS011;36061;48.116;11.612;2022-12-08T04:01:37;11.80;;;7.07;;
50161;SDS011;36061;48.116;11.612;2022-12-08T04:04:03;11.67;;;6.50;;
50161;SDS011;36061;48.116;11.612;2022-12-08T04:06:29;12.30;;;6.30;;
50161;SDS011;36061;48.116;11.612;2022-12-08T04:08:54;9.53;;;5.50;;
50161;SDS011;36061;48.116;11.612;2022-12-08T04:11:20;10.83;;;6.37;;
50161;SDS011;36061;48.116;11.612;2022-12-08T04:13:46;12.67;;;6.63;;
50161;SDS011;36061;48.116;11.612;2022-12-08T04:16:16;11.17;;;6.83;;
50161;SDS011;36061;48.116;11.612;2022-12-08T04:18:45;11.73;;;6.90;;
50161;SDS011;36061;48.116;11.612;2022-12-08T04:21:11;11.07;;;6.40;;
50161;SDS011;36061;48.116;11.612;2022-12-08T04:23:37;11.63;;;6.80;;
50161;SDS011;36061;48.116;11.612;2022-12-08T04:26:03;12.20;;;6.87;;
50161;SDS011;36061;48.116;11.612;2022-12-08T04:28:29;14.80;;;7.17;;
50161;SDS011;36061;48.116;11.612;2022-12-08T04:30:55;11.83;;;6.83;;
50161;SDS011;36061;48.116;11.612;2022-12-08T04:33:21;12.53;;;6.27;;
50161;SDS011;36061;48.116;11.612;2022-12-08T04:35:47;9.80;;;6.50;;
50161;SDS011;36061;48.116;11.612;2022-12-08T04:38:16;10.50;;;6.23;;
50161;SDS011;36061;48.116;11.612;2022-12-08T04:40:42;13.50;;;6.93;;
50161;SDS011;36061;48.116;11.612;2022-12-08T04:43:08;12.47;;;7.40;;
50161;SDS011;36061;48.116;11.612;2022-12-08T04:45:34;13.20;;;7.07;;
50161;SDS011;36061;48.116;11.612;2022-12-08T04:48:00;11.57;;;7.33;;
50161;SDS011;36061;48.116;11.612;2022-12-08T04:50:26;12.43;;;6.93;;
50161;SDS011;36061;48.116;11.612;2022-12-08T04:52:52;11.63;;;6.93;;
50161;SDS011;36061;48.116;11.612;2022-12-08T04:55:18;11.47;;;6.47;;
50161;SDS011;36061;48.116;11.612;2022-12-08T04:57:44;11.80;;;6.80;;
50161;SDS011;36061;48.116;11.612;2022-12-08T05:00:10;11.67;;;6.67;;
50161;SDS011;36061;48.116;11.612;2022-12-08T05:02:38;9.60;;;6.00;;
50161;SDS011;36061;48.116;11.612;2022-12-08T05:05:04;12.53;;;7.37;;
50161;SDS011;36061;48.116;11.612;2022-12-08T05:07:31;11.83;;;6.73;;
50161;SDS011;36061;48.116;11.612;2022-12-08T05:09:57;13.33;;;6.90;;
50161;SDS011;36061;48.116;11.612;2022-12-08T05:12:23;13.13;;;6.87;;
50161;SDS011;36061;48.116;11.612;2022-12-08T05:14:49;12.43;;;6.93;;
50161;SDS011;36061;48.116;11.612;2022-12-08T05:17:15;10.03;;;6.17;;
50161;SDS011;36061;48.116;11.612;2022-12-08T05:19:42;13.23;;;6.97;;
50161;SDS011;36061;48.116;11.612;2022-12-08T05:22:08;11.97;;;7.10;;
50161;SDS011;36061;48.116;11.612;2022-12-08T05:24:33;14.10;;;7.33;;
50161;SDS011;36061;48.116;11.612;2022-12-08T05:26:59;16.33;;;6.37;;
50161;SDS011;36061;48.116;11.612;2022-12-08T05:29:25;11.23;;;6.13;;
50161;SDS011;36061;48.116;11.612;2022-12-08T05:31:51;10.53;;;7.27;;
50161;SDS011;36061;48.116;11.612;2022-12-08T05:34:17;13.13;;;7.67;;
50161;SDS011;36061;48.116;11.612;2022-12-08T05:36:43;13.47;;;6.87;;
50161;SDS011;36061;48.116;11.612;2022-12-08T05:39:12;10.47;;;6.53;;
50161;SDS011;36061;48.116;11.612;2022-12-08T05:41:38;11.77;;;6.53;;
50161;SDS011;36061;48.116;11.612;2022-12-08T05:44:04;11.33;;;6.67;;
50161;SDS011;36061;48.116;11.612;2022-12-08T05:46:30;11.70;;;6.53;;
50161;SDS011;36061;48.116;11.612;2022-12-08T05:48:58;12.20;;;6.67;;
50161;SDS011;36061;48.116;11.612;2022-12-08T05:51:24;12.00;;;7.37;;
50161;SDS011;36061;48.116;11.612;2022-12-08T05:53:50;12.10;;;7.13;;
50161;SDS011;36061;48.116;11.612;2022-12-08T05:56:17;14.07;;;7.57;;
50161;SDS011;36061;48.116;11.612;2022-12-08T05:58:44;11.70;;;7.20;;
50161;SDS011;36061;48.116;11.612;2022-12-08T06:03:44;12.20;;;7.50;;
50161;SDS011;36061;48.116;11.612;2022-12-08T06:06:10;13.10;;;7.47;;
50161;SDS011;36061;48.116;11.612;2022-12-08T06:08:36;12.87;;;7.57;;
50161;SDS011;36061;48.116;11.612;2022-12-08T06:11:01;11.90;;;6.97;;
50161;SDS011;36061;48.116;11.612;2022-12-08T06:13:27;14.33;;;6.73;;
50161;SDS011;36061;48.116;11.612;2022-12-08T06:15:53;14.77;;;7.00;;
50161;SDS011;36061;48.116;11.612;2022-12-08T06:18:18;11.40;;;7.00;;
50161;SDS011;36061;48.116;11.612;2022-12-08T06:20:44;12.60;;;7.20;;
50161;SDS011;36061;48.116;11.612;2022-12-08T06:23:10;15.37;;;7.40;;
50161;SDS011;36061;48.116;11.612;2022-12-08T06:25:36;16.77;;;7.30;;
50161;SDS011;36061;48.116;11.612;2022-12-08T06:28:03;13.70;;;7.63;;
50161;SDS011;36061;48.116;11.612;2022-12-08T06:30:30;13.33;;;6.70;;
50161;SDS011;36061;48.116;11.612;2022-12-08T06:32:55;10.67;;;6.67;;
50161;SDS011;36061;48.116;11.612;2022-12-08T06:35:21;11.47;;;6.10;;
50161;SDS011;36061;48.116;11.612;2022-12-08T06:37:47;10.90;;;6.60;;
50161;SDS011;36061;48.116;11.612;2022-12-08T06:40:13;9.73;;;4.87;;
50161;SDS011;36061;48.116;11.612;2022-12-08T06:42:39;9.63;;;6.17;;
50161;SDS011;36061;48.116;11.612;2022-12-08T06:45:08;9.87;;;6.37;;
50161;SDS011;36061;48.116;11.612;2022-12-08T06:47:34;11.90;;;6.73;;
50161;SDS011;36061;48.116;11.612;2022-12-08T06:50:00;11.03;;;6.33;;
50161;SDS011;36061;48.116;11.612;2022-12-08T06:52:26;13.33;;;6.57;;
50161;SDS011;36061;48.116;11.612;2022-12-08T06:54:52;12.30;;;7.07;;
50161;SDS011;36061;48.116;11.612;2022-12-08T06:57:17;10.77;;;6.93;;
50161;SDS011;36061;48.116;11.612;2022-12-08T06:59:43;11.90;;;7.17;;
50161;SDS011;36061;48.116;11.612;2022-12-08T07:02:09;11.10;;;6.53;;
50161;SDS011;36061;48.116;11.612;2022-12-08T07:04:35;12.17;;;7.03;;
50161;SDS011;36061;48.116;11.612;2022-12-08T07:07:01;11.67;;;7.73;;
50161;SDS011;36061;48.116;11.612;2022-12-08T07:09:27;10.80;;;6.23;;
50161;SDS011;36061;48.116;11.612;2022-12-08T07:11:53;13.67;;;6.77;;
50161;SDS011;36061;48.116;11.612;2022-12-08T07:14:19;13.97;;;7.87;;
50161;SDS011;36061;48.116;11.612;2022-12-08T07:16:49;13.13;;;7.33;;
50161;SDS011;36061;48.116;11.612;2022-12-08T07:19:18;12.30;;;7.03;;
50161;SDS011;36061;48.116;11.612;2022-12-08T07:21:43;11.40;;;7.27;;
50161;SDS011;36061;48.116;11.612;2022-12-08T07:24:09;14.33;;;8.00;;
50161;SDS011;36061;48.116;11.612;2022-12-08T07:26:36;19.63;;;7.73;;
50161;SDS011;36061;48.116;11.612;2022-12-08T07:29:01;11.37;;;7.10;;
50161;SDS011;36061;48.116;11.612;2022-12-08T07:31:27;13.47;;;7.13;;
50161;SDS011;36061;48.116;11.612;2022-12-08T07:33:54;12.77;;;7.60;;
50161;SDS011;36061;48.116;11.612;2022-12-08T07:36:20;12.77;;;7.67;;
50161;SDS011;36061;48.116;11.612;2022-12-08T07:38:47;14.30;;;7.63;;
50161;SDS011;36061;48.116;11.612;2022-12-08T07:41:14;14.67;;;8.43;;
50161;SDS011;36061;48.116;11.612;2022-12-08T07:43:41;12.30;;;8.27;;
50161;SDS011;36061;48.116;11.612;2022-12-08T07:46:08;11.90;;;7.43;;
50161;SDS011;36061;48.116;11.612;2022-12-08T07:48:36;16.77;;;8.43;;
50161;SDS011;36061;48.116;11.612;2022-12-08T07:51:02;13.63;;;8.23;;
50161;SDS011;36061;48.116;11.612;2022-12-08T07:53:30;16.27;;;7.97;;
50161;SDS011;36061;48.116;11.612;2022-12-08T07:55:56;13.40;;;7.17;;
50161;SDS011;36061;48.116;11.612;2022-12-08T07:58:22;13.07;;;7.83;;
50161;SDS011;36061;48.116;11.612;2022-12-08T08:00:48;12.67;;;7.60;;
50161;SDS011;36061;48.116;11.612;2022-12-08T08:03:14;10.10;;;6.70;;
50161;SDS011;36061;48.116;11.612;2022-12-08T08:05:40;14.00;;;7.03;;
50161;SDS011;36061;48.116;11.612;2022-12-08T08:08:06;13.70;;;6.37;;
50161;SDS011;36061;48.116;11.612;2022-12-08T08:10:32;14.70;;;7.23;;
50161;SDS011;36061;48.116;11.612;2022-12-08T08:12:58;12.20;;;6.50;;
50161;SDS011;36061;48.116;11.612;2022-12-08T08:15:24;12.60;;;6.60;;
50161;SDS011;36061;48.116;11.612;2022-12-08T08:17:53;9.03;;;5.97;;
50161;SDS011;36061;48.116;11.612;2022-12-08T08:20:19;10.77;;;6.37;;
50161;SDS011;36061;48.116;11.612;2022-12-08T08:22:46;13.17;;;6.20;;
50161;SDS011;36061;48.116;11.612;2022-12-08T08:25:16;14.00;;;6.17;;
50161;SDS011;36061;48.116;11.612;2022-12-08T08:27:46;8.37;;;5.10;;
50161;SDS011;36061;48.116;11.612;2022-12-08T08:30:13;10.63;;;4.90;;
50161;SDS011;36061;48.116;11.612;2022-12-08T08:32:39;8.40;;;5.40;;
50161;SDS011;36061;48.116;11.612;2022-12-08T08:35:06;11.23;;;5.40;;
50161;SDS011;36061;48.116;11.612;2022-12-08T08:37:32;13.67;;;6.73;;
50161;SDS011;36061;48.116;11.612;2022-12-08T08:39:58;11.20;;;6.37;;
50161;SDS011;36061;48.116;11.612;2022-12-08T08:42:24;12.17;;;7.37;;
50161;SDS011;36061;48.116;11.612;2022-12-08T08:44:50;9.50;;;5.70;;
50161;SDS011;36061;48.116;11.612;2022-12-08T08:47:16;13.10;;;7.00;;
50161;SDS011;36061;48.116;11.612;2022-12-08T08:49:41;10.80;;;6.13;;
50161;SDS011;36061;48.116;11.612;2022-12-08T08:52:07;13.87;;;6.77;;
50161;SDS011;36061;48.116;11.612;2022-12-08T08:54:33;11.13;;;6.67;;
50161;SDS011;36061;48.116;11.612;2022-12-08T08:56:59;14.97;;;6.80;;
50161;SDS011;36061;48.116;11.612;2022-12-08T08:59:26;10.03;;;6.37;;
50161;SDS011;36061;48.116;11.612;2022-12-08T09:01:52;13.17;;;7.43;;
50161;SDS011;36061;48.116;11.612;2022-12-08T09:04:19;12.80;;;6.97;;
50161;SDS011;36061;48.116;11.612;2022-12-08T09:06:46;11.90;;;6.63;;
50161;SDS011;36061;48.116;11.612;2022-12-08T09:09:13;18.03;;;7.23;;
50161;SDS011;36061;48.116;11.612;2022-12-08T09:11:39;16.30;;;6.83;;
50161;SDS011;36061;48.116;11.612;2022-12-08T09:14:04;14.03;;;7.03;;
50161;SDS011;36061;48.116;11.612;2022-12-08T09:16:30;16.20;;;7.53;;
50161;SDS011;36061;48.116;11.612;2022-12-08T09:18:56;16.50;;;7.43;;
50161;SDS011;36061;48.116;11.612;2022-12-08T09:21:23;23.93;;;6.57;;
50161;SDS011;36061;48.116;11.612;2022-12-08T09:23:51;15.37;;;6.83;;
50161;SDS011;36061;48.116;11.612;2022-12-08T09:26:19;14.00;;;7.03;;
50161;SDS011;36061;48.116;11.612;2022-12-08T09:28:51;19.07;;;6.83;;
50161;SDS011;36061;48.116;11.612;2022-12-08T09:31:23;18.87;;;7.17;;
50161;SDS011;36061;48.116;11.612;2022-12-08T09:33:49;16.10;;;5.93;;
50161;SDS011;36061;48.116;11.612;2022-12-08T09:36:18;13.27;;;6.67;;
50161;SDS011;36061;48.116;11.612;2022-12-08T09:38:44;16.27;;;8.03;;
50161;SDS011;36061;48.116;11.612;2022-12-08T09:41:19;25.87;;;7.90;;
50161;SDS011;36061;48.116;11.612;2022-12-08T09:46:46;14.53;;;6.40;;
50161;SDS011;36061;48.116;11.612;2022-12-08T09:49:15;15.47;;;6.47;;
50161;SDS011;36061;48.116;11.612;2022-12-08T09:51:45;20.30;;;7.70;;
50161;SDS011;36061;48.116;11.612;2022-12-08T09:56:43;20.27;;;7.53;;
50161;SDS011;36061;48.116;11.612;2022-12-08T09:59:22;17.60;;;6.27;;
50161;SDS011;36061;48.116;11.612;2022-12-08T10:01:55;27.00;;;6.83;;
50161;SDS011;36061;48.116;11.612;2022-12-08T10:04:31;18.00;;;6.60;;
50161;SDS011;36061;48.116;11.612;2022-12-08T10:07:16;13.47;;;6.03;;
50161;SDS011;36061;48.116;11.612;2022-12-08T10:15:39;15.80;;;6.33;;
50161;SDS011;36061;48.116;11.612;2022-12-08T10:18:16;24.20;;;11.77;;
50161;SDS011;36061;48.116;11.612;2022-12-08T10:20:45;17.87;;;6.50;;
50161;SDS011;36061;48.116;11.612;2022-12-08T10:26:01;12.73;;;6.43;;
50161;SDS011;36061;48.116;11.612;2022-12-08T10:28:29;23.57;;;7.00;;
50161;SDS011;36061;48.116;11.612;2022-12-08T10:30:56;16.43;;;6.43;;
50161;SDS011;36061;48.116;11.612;2022-12-08T10:33:22;14.17;;;6.40;;
50161;SDS011;36061;48.116;11.612;2022-12-08T10:35:49;15.17;;;6.40;;
50161;SDS011;36061;48.116;11.612;2022-12-08T10:41:13;11.93;;;6.47;;
50161;SDS011;36061;48.116;11.612;2022-12-08T10:46:22;10.67;;;6.60;;
50161;SDS011;36061;48.116;11.612;2022-12-08T10:48:51;13.03;;;7.10;;
50161;SDS011;36061;48.116;11.612;2022-12-08T10:51:23;12.13;;;7.33;;
50161;SDS011;36061;48.116;11.612;2022-12-08T10:53:58;16.07;;;8.20;;
50161;SDS011;36061;48.116;11.612;2022-12-08T10:56:30;18.73;;;7.50;;
50161;SDS011;36061;48.116;11.612;2022-12-08T11:01:39;14.77;;;8.17;;
50161;SDS011;36061;48.116;11.612;2022-12-08T11:04:11;13.03;;;7.80;;
50161;SDS011;36061;48.116;11.612;2022-12-08T11:06:45;13.17;;;7.87;;
50161;SDS011;36061;48.116;11.612;2022-12-08T11:16:49;13.20;;;7.60;;
50161;SDS011;36061;48.116;11.612;2022-12-08T11:19:26;14.53;;;7.97;;
50161;SDS011;36061;48.116;11.612;2022-12-08T11:21:52;15.60;;;8.40;;
50161;SDS011;36061;48.116;11.612;2022-12-08T11:29:27;13.87;;;7.77;;
50161;SDS011;36061;48.116;11.612;2022-12-08T11:32:12;12.87;;;7.70;;
50161;SDS011;36061;48.116;11.612;2022-12-08T11:34:52;14.93;;;8.27;;
50161;SDS011;36061;48.116;11.612;2022-12-08T11:37:22;20.50;;;9.20;;
50161;SDS011;36061;48.116;11.612;2022-12-08T11:39:54;14.00;;;7.90;;
50161;SDS011;36061;48.116;11.612;2022-12-08T11:42:23;25.63;;;10.00;;
50161;SDS011;36061;48.116;11.612;2022-12-08T11:45:00;15.20;;;8.43;;
50161;SDS011;36061;48.116;11.612;2022-12-08T11:47:45;14.13;;;8.27;;
50161;SDS011;36061;48.116;11.612;2022-12-08T11:50:29;19.47;;;9.13;;
50161;SDS011;36061;48.116;11.612;2022-12-08T11:53:02;19.00;;;9.33;;
50161;SDS011;36061;48.116;11.612;2022-12-08T11:58:02;21.33;;;8.17;;
50161;SDS011;36061;48.116;11.612;2022-12-08T12:00:36;14.23;;;8.57;;
50161;SDS011;36061;48.116;11.612;2022-12-08T12:03:07;17.73;;;9.20;;
50161;SDS011;36061;48.116;11.612;2022-12-08T12:06:21;15.53;;;8.77;;
50161;SDS011;36061;48.116;11.612;2022-12-08T12:12:31;12.33;;;8.13;;
50161;SDS011;36061;48.116;11.612;2022-12-08T12:17:48;15.13;;;8.60;;
50161;SDS011;36061;48.116;11.612;2022-12-08T12:20:37;14.20;;;7.53;;
50161;SDS011;36061;48.116;11.612;2022-12-08T12:23:18;14.53;;;8.13;;
50161;SDS011;36061;48.116;11.612;2022-12-08T12:26:00;13.20;;;7.33;;
50161;SDS011;36061;48.116;11.612;2022-12-08T12:28:39;12.10;;;7.63;;
50161;SDS011;36061;48.116;11.612;2022-12-08T12:31:12;12.37;;;7.40;;
50161;SDS011;36061;48.116;11.612;2022-12-08T12:33:42;15.03;;;8.53;;
50161;SDS011;36061;48.116;11.612;2022-12-08T12:36:10;13.83;;;7.23;;
50161;SDS011;36061;48.116;11.612;2022-12-08T12:38:45;16.90;;;8.87;;
50161;SDS011;36061;48.116;11.612;2022-12-08T12:41:28;14.70;;;8.10;;
50161;SDS011;36061;48.116;11.612;2022-12-08T13:07:46;17.97;;;8.70;;
50161;SDS011;36061;48.116;11.612;2022-12-08T13:10:32;14.73;;;8.33;;
50161;SDS011;36061;48.116;11.612;2022-12-08T13:15:35;15.83;;;8.10;;
50161;SDS011;36061;48.116;11.612;2022-12-08T13:18:04;15.83;;;9.07;;
50161;SDS011;36061;48.116;11.612;2022-12-08T13:20:45;14.20;;;8.27;;
50161;SDS011;36061;48.116;11.612;2022-12-08T13:23:24;18.50;;;8.80;;
50161;SDS011;36061;48.116;11.612;2022-12-08T13:25:51;14.10;;;7.63;;
50161;SDS011;36061;48.116;11.612;2022-12-08T13:28:32;12.90;;;6.87;;
50161;SDS011;36061;48.116;11.612;2022-12-08T13:31:00;15.20;;;8.30;;
50161;SDS011;36061;48.116;11.612;2022-12-08T13:38:51;14.47;;;7.93;;
50161;SDS011;36061;48.116;11.612;2022-12-08T13:41:22;14.50;;;7.67;;
50161;SDS011;36061;48.116;11.612;2022-12-08T13:44:13;13.50;;;8.53;;
50161;SDS011;36061;48.116;11.612;2022-12-08T13:46:51;15.67;;;9.70;;
50161;SDS011;36061;48.116;11.612;2022-12-08T13:49:23;15.87;;;8.40;;
50161;SDS011;36061;48.116;11.612;2022-12-08T13:51:58;15.33;;;8.07;;
50161;SDS011;36061;48.116;11.612;2022-12-08T13:54:26;17.50;;;9.10;;
50161;SDS011;36061;48.116;11.612;2022-12-08T13:56:53;18.67;;;8.07;;
50161;SDS011;36061;48.116;11.612;2022-12-08T13:59:28;17.63;;;8.77;;
50161;SDS011;36061;48.116;11.612;2022-12-08T14:04:53;14.07;;;7.97;;
50161;SDS011;36061;48.116;11.612;2022-12-08T14:07:19;17.70;;;8.93;;
50161;SDS011;36061;48.116;11.612;2022-12-08T14:09:46;14.50;;;7.90;;
50161;SDS011;36061;48.116;11.612;2022-12-08T14:12:19;18.97;;;9.10;;
50161;SDS011;36061;48.116;11.612;2022-12-08T14:14:51;22.37;;;9.30;;
50161;SDS011;36061;48.116;11.612;2022-12-08T14:17:22;15.60;;;9.67;;
50161;SDS011;36061;48.116;11.612;2022-12-08T14:19:55;18.90;;;8.47;;
50161;SDS011;36061;48.116;11.612;2022-12-08T14:22:23;12.17;;;8.23;;
50161;SDS011;36061;48.116;11.612;2022-12-08T14:24:52;20.07;;;9.17;;
50161;SDS011;36061;48.116;11.612;2022-12-08T14:27:19;16.73;;;8.67;;
50161;SDS011;36061;48.116;11.612;2022-12-08T14:29:56;16.13;;;8.93;;
50161;SDS011;36061;48.116;11.612;2022-12-08T14:38:16;22.60;;;11.80;;
50161;SDS011;36061;48.116;11.612;2022-12-08T14:40:38;25.83;;;11.93;;
50161;SDS011;36061;48.116;11.612;2022-12-08T14:45:32;16.33;;;8.77;;
50161;SDS011;36061;48.116;11.612;2022-12-08T14:59:04;14.67;;;8.33;;
50161;SDS011;36061;48.116;11.612;2022-12-08T15:01:39;18.77;;;9.13;;
50161;SDS011;36061;48.116;11.612;2022-12-08T15:12:35;16.80;;;9.03;;
50161;SDS011;36061;48.116;11.612;2022-12-08T15:15:10;17.13;;;9.63;;
50161;SDS011;36061;48.116;11.612;2022-12-08T15:17:48;16.20;;;8.73;;
50161;SDS011;36061;48.116;11.612;2022-12-08T15:20:26;13.70;;;8.03;;
50161;SDS011;36061;48.116;11.612;2022-12-08T15:23:42;16.13;;;8.43;;
50161;SDS011;36061;48.116;11.612;2022-12-08T15:26:17;18.50;;;9.10;;
50161;SDS011;36061;48.116;11.612;2022-12-08T15:28:46;17.83;;;7.83;;
50161;SDS011;36061;48.116;11.612;2022-12-08T15:31:12;14.37;;;8.23;;
50161;SDS011;36061;48.116;11.612;2022-12-08T15:33:38;14.83;;;7.67;;
50161;SDS011;36061;48.116;11.612;2022-12-08T15:36:03;24.63;;;8.93;;
50161;SDS011;36061;48.116;11.612;2022-12-08T15:38:29;12.97;;;7.57;;
50161;SDS011;36061;48.116;11.612;2022-12-08T15:40:56;14.27;;;7.83;;
50161;SDS011;36061;48.116;11.612;2022-12-08T15:43:25;13.73;;;7.47;;
50161;SDS011;36061;48.116;11.612;2022-12-08T15:45:51;21.77;;;8.70;;
50161;SDS011;36061;48.116;11.612;2022-12-08T15:48:21;18.90;;;8.70;;
50161;SDS011;36061;48.116;11.612;2022-12-08T15:50:51;25.07;;;9.13;;
50161;SDS011;36061;48.116;11.612;2022-12-08T15:53:18;14.13;;;8.33;;
50161;SDS011;36061;48.116;11.612;2022-12-08T15:55:44;17.60;;;8.53;;
50161;SDS011;36061;48.116;11.612;2022-12-08T15:58:18;18.43;;;9.43;;
50161;SDS011;36061;48.116;11.612;2022-12-08T16:00:48;17.57;;;9.17;;
50161;SDS011;36061;48.116;11.612;2022-12-08T16:03:26;14.73;;;8.70;;
50161;SDS011;36061;48.116;11.612;2022-12-08T16:05:53;17.50;;;8.40;;
50161;SDS011;36061;48.116;11.612;2022-12-08T16:08:20;20.23;;;8.87;;
50161;SDS011;36061;48.116;11.612;2022-12-08T16:10:46;15.90;;;8.73;;
50161;SDS011;36061;48.116;11.612;2022-12-08T16:13:13;16.13;;;8.97;;
50161;SDS011;36061;48.116;11.612;2022-12-08T16:15:58;13.13;;;8.03;;
50161;SDS011;36061;48.116;11.612;2022-12-08T16:18:26;14.57;;;8.50;;
50161;SDS011;36061;48.116;11.612;2022-12-08T16:20:54;15.37;;;8.60;;
50161;SDS011;36061;48.116;11.612;2022-12-08T16:23:19;16.27;;;8.93;;
50161;SDS011;36061;48.116;11.612;2022-12-08T16:25:45;19.47;;;8.67;;
50161;SDS011;36061;48.116;11.612;2022-12-08T16:28:11;14.33;;;8.17;;
50161;SDS011;36061;48.116;11.612;2022-12-08T16:30:37;14.97;;;8.33;;
50161;SDS011;36061;48.116;11.612;2022-12-08T16:33:03;16.07;;;9.33;;
50161;SDS011;36061;48.116;11.612;2022-12-08T16:35:30;14.87;;;9.03;;
50161;SDS011;36061;48.116;11.612;2022-12-08T16:37:56;15.50;;;9.07;;
50161;SDS011;36061;48.116;11.612;2022-12-08T16:40:21;14.30;;;9.03;;
50161;SDS011;36061;48.116;11.612;2022-12-08T16:42:47;18.80;;;9.30;;
50161;SDS011;36061;48.116;11.612;2022-12-08T16:45:27;17.83;;;8.73;;
50161;SDS011;36061;48.116;11.612;2022-12-08T16:47:54;15.97;;;9.20;;
50161;SDS011;36061;48.116;11.612;2022-12-08T16:50:26;19.95;;;9.85;;
50161;SDS011;36061;48.116;11.612;2022-12-08T16:52:57;18.53;;;9.10;;